createdAt,value
2022-11-29T00:01:43.639Z,100990.03
2022-11-29T00:04:14.423Z,100994.50
2022-11-29T00:06:43.682Z,100997.22
2022-11-29T00:09:14.173Z,100993.53
2022-11-29T00:12:01.117Z,100992.66
2022-11-29T00:14:29.298Z,100994.63
2022-11-29T00:17:01.866Z,100995.38
2022-11-29T00:19:34.641Z,100991.78
2022-11-29T00:22:04.992Z,100992.75
2022-11-29T00:24:36.394Z,100997.34
2022-11-29T00:27:04.649Z,100989.16
2022-11-29T00:29:34.359Z,100986.44
2022-11-29T00:32:02.315Z,100990.13
2022-11-29T00:34:30.365Z,100996.34
2022-11-29T00:36:58.537Z,100995.59
2022-11-29T00:39:28.370Z,100998.31
2022-11-29T00:41:58.697Z,100997.81
2022-11-29T00:44:28.524Z,100993.31
2022-11-29T00:46:56.725Z,100997.03
2022-11-29T00:49:24.537Z,101001.59
2022-11-29T00:51:52.445Z,101000.84
2022-11-29T00:54:24.128Z,101005.41
2022-11-29T00:56:53.563Z,101009.16
2022-11-29T00:59:21.640Z,101003.94
2022-11-29T01:01:49.781Z,100998.59
2022-11-29T01:04:17.959Z,101007.63
2022-11-29T01:06:46.106Z,100996.84
2022-11-29T01:09:14.123Z,101011.34
2022-11-29T01:11:44.723Z,101005.88
2022-11-29T01:14:14.398Z,101007.63
2022-11-29T01:16:42.382Z,100996.84
2022-11-29T01:19:12.722Z,101005.00
2022-11-29T01:21:41.201Z,101014.06
2022-11-29T01:24:09.221Z,101004.13
2022-11-29T01:26:38.694Z,101007.72
2022-11-29T01:29:08.526Z,101005.00
2022-11-29T01:31:38.204Z,101007.72
2022-11-29T01:34:08.526Z,101009.59
2022-11-29T01:36:36.470Z,101008.72
2022-11-29T01:39:06.779Z,101017.75
2022-11-29T01:41:36.803Z,101011.44
2022-11-29T01:44:07.883Z,101017.66
2022-11-29T01:46:38.807Z,101015.91
2022-11-29T01:49:12.446Z,101015.03
2022-11-29T01:51:44.255Z,101012.31
2022-11-29T01:54:13.493Z,101021.47
2022-11-29T01:56:42.265Z,101021.47
2022-11-29T01:59:16.524Z,101020.47
2022-11-29T02:01:47.066Z,101019.59
2022-11-29T02:04:15.305Z,101026.91
2022-11-29T02:06:44.260Z,101027.69
2022-11-29T02:09:19.857Z,101026.69
2022-11-29T02:12:08.116Z,101027.69
2022-11-29T02:14:58.463Z,101026.69
2022-11-29T02:17:36.607Z,101033.13
2022-11-29T02:20:28.684Z,101032.16
2022-11-29T02:23:03.187Z,101032.16
2022-11-29T02:25:55.609Z,101032.91
2022-11-29T02:28:47.901Z,101042.16
2022-11-29T02:31:55.578Z,101034.88
2022-11-29T02:34:54.972Z,101035.84
2022-11-29T02:37:59.415Z,101034.88
2022-11-29T02:40:44.231Z,101044.69
2022-11-29T02:43:33.768Z,101048.19
2022-11-29T02:46:18.737Z,101043.56
2022-11-29T02:48:56.811Z,101044.44
2022-11-29T02:51:39.169Z,101047.06
2022-11-29T02:54:16.840Z,101048.03
2022-11-29T02:56:52.924Z,101047.06
2022-11-29T02:59:34.994Z,101046.84
2022-11-29T03:02:12.747Z,101050.66
2022-11-29T03:04:48.976Z,101055.03
2022-11-29T03:07:26.724Z,101057.63
2022-11-29T03:10:02.124Z,101056.75
2022-11-29T03:12:37.134Z,101058.50
2022-11-29T03:15:20.335Z,101064.69
2022-11-29T03:17:56.449Z,101063.00
2022-11-29T03:20:37.008Z,101064.94
2022-11-29T03:23:19.671Z,101068.28
2022-11-29T03:25:54.802Z,101073.84
2022-11-29T03:28:27.482Z,101082.78
2022-11-29T03:31:05.873Z,101073.75
2022-11-29T03:33:52.484Z,101077.34
2022-11-29T03:36:30.330Z,101084.53
2022-11-29T03:39:04.250Z,101089.97
2022-11-29T03:41:41.282Z,101085.41
2022-11-29T03:44:14.287Z,101089.00
2022-11-29T03:46:45.088Z,101089.91
2022-11-29T03:49:22.321Z,101090.19
2022-11-29T03:52:00.283Z,101083.66
2022-11-29T03:54:33.812Z,101089.97
2022-11-29T03:57:02.459Z,101094.56
2022-11-29T03:59:53.577Z,101089.00
2022-11-29T04:02:56.843Z,101092.72
2022-11-29T04:05:54.531Z,101093.78
2022-11-29T04:08:46.343Z,101109.06
2022-11-29T04:11:55.711Z,101098.16
2022-11-29T04:14:34.629Z,101106.22
2022-11-29T04:17:22.927Z,101104.38
2022-11-29T04:20:04.357Z,101112.44
2022-11-29T04:23:00.395Z,101116.16
2022-11-29T04:25:45.290Z,101114.31
2022-11-29T04:28:59.743Z,101117.03
2022-11-29T04:31:38.835Z,101117.13
2022-11-29T04:34:33.665Z,101122.38
2022-11-29T04:37:19.493Z,101124.22
2022-11-29T04:40:04.808Z,101124.09
2022-11-29T04:43:06.977Z,101113.31
2022-11-29T04:46:11.447Z,101118.00
2022-11-29T04:49:11.605Z,101121.38
2022-11-29T04:51:56.331Z,101132.16
2022-11-29T04:54:35.650Z,101142.97
2022-11-29T04:57:09.991Z,101139.34
2022-11-29T04:59:45.698Z,101150.16
2022-11-29T05:02:30.071Z,101146.44
2022-11-29T05:05:05.126Z,101150.16
2022-11-29T05:07:44.468Z,101159.09
2022-11-29T05:10:25.964Z,101162.69
2022-11-29T05:13:03.286Z,101163.56
2022-11-29T05:15:59.181Z,101161.72
2022-11-29T05:18:55.885Z,101165.41
2022-11-29T05:21:31.717Z,101169.13
2022-11-29T05:24:08.874Z,101170.75
2022-11-29T05:26:44.810Z,101172.50
2022-11-29T05:29:23.640Z,101172.63
2022-11-29T05:32:04.584Z,101178.81
2022-11-29T05:35:01.902Z,101180.91
2022-11-29T05:37:53.989Z,101177.94
2022-11-29T05:40:41.369Z,101186.25
2022-11-29T05:43:35.171Z,101188.84
2022-11-29T05:46:09.209Z,101194.28
2022-11-29T05:48:46.022Z,101199.63
2022-11-29T05:51:23.415Z,101200.50
2022-11-29T05:54:01.881Z,101200.50
2022-11-29T05:56:44.063Z,101205.09
2022-11-29T05:59:17.579Z,101202.59
2022-11-29T06:01:54.179Z,101209.66
2022-11-29T06:04:29.201Z,101216.09
2022-11-29T06:07:07.918Z,101222.31
2022-11-29T06:09:44.151Z,101224.28
2022-11-29T06:12:21.413Z,101229.63
2022-11-29T06:15:07.262Z,101239.66
2022-11-29T06:17:48.693Z,101242.38
2022-11-29T06:20:34.928Z,101240.53
2022-11-29T06:23:24.710Z,101241.50
2022-11-29T06:26:09.561Z,101242.47
2022-11-29T06:29:01.923Z,101242.63
2022-11-29T06:31:37.838Z,101252.66
2022-11-29T06:34:13.198Z,101252.50
2022-11-29T06:36:46.233Z,101252.50
2022-11-29T06:39:16.089Z,101250.63
2022-11-29T06:41:44.415Z,101252.94
2022-11-29T06:44:13.075Z,101265.41
2022-11-29T06:46:47.557Z,101260.69
2022-11-29T06:49:25.852Z,101259.06
2022-11-29T06:52:04.723Z,101263.41
2022-11-29T06:54:49.211Z,101266.28
2022-11-29T06:57:26.167Z,101267.25
2022-11-29T07:00:06.266Z,101270.84
2022-11-29T07:02:53.344Z,101275.31
2022-11-29T07:05:26.789Z,101276.31
2022-11-29T07:07:57.496Z,101274.56
2022-11-29T07:10:28.696Z,101280.00
2022-11-29T07:12:57.246Z,101283.69
2022-11-29T07:15:25.952Z,101280.00
2022-11-29T07:18:04.097Z,101285.34
2022-11-29T07:20:40.454Z,101290.81
2022-11-29T07:23:19.688Z,101293.53
2022-11-29T07:25:55.619Z,101289.94
2022-11-29T07:28:36.157Z,101298.00
2022-11-29T07:31:10.803Z,101297.22
2022-11-29T07:33:54.651Z,101306.19
2022-11-29T07:36:35.931Z,101312.59
2022-11-29T07:39:18.054Z,101317.09
2022-11-29T07:41:54.339Z,101315.34
2022-11-29T07:44:29.057Z,101317.19
2022-11-29T07:46:57.017Z,101320.88
2022-11-29T07:49:25.062Z,101317.19
2022-11-29T07:51:54.730Z,101321.75
2022-11-29T07:54:23.029Z,101325.38
2022-11-29T07:56:52.434Z,101326.25
2022-11-29T07:59:20.684Z,101332.66
2022-11-29T08:01:49.011Z,101338.13
2022-11-29T08:04:16.810Z,101331.69
2022-11-29T08:06:44.664Z,101328.97
2022-11-29T08:09:12.475Z,101342.59
2022-11-29T08:11:40.921Z,101341.63
2022-11-29T08:14:10.198Z,101344.44
2022-11-29T08:16:38.363Z,101340.84
2022-11-29T08:19:06.351Z,101344.44
2022-11-29T08:21:34.270Z,101345.41
2022-11-29T08:24:02.234Z,101343.56
2022-11-29T08:26:31.822Z,101356.22
2022-11-29T08:28:59.905Z,101353.50
2022-11-29T08:31:29.268Z,101352.53
2022-11-29T08:33:57.130Z,101356.22
2022-11-29T08:36:24.952Z,101357.19
2022-11-29T08:39:00.102Z,101358.94
2022-11-29T08:41:31.982Z,101366.25
2022-11-29T08:44:02.544Z,101366.25
2022-11-29T08:46:45.608Z,101366.25
2022-11-29T08:49:13.814Z,101370.16
2022-11-29T08:51:41.619Z,101371.81
2022-11-29T08:54:08.661Z,101379.97
2022-11-29T08:59:26.062Z,101375.50
2022-11-29T09:01:55.233Z,101376.28
2022-11-29T09:04:23.126Z,101386.31
2022-11-29T09:06:51.244Z,101387.19
2022-11-29T09:09:19.764Z,101393.50
2022-11-29T09:11:49.534Z,101398.09
2022-11-29T09:14:22.841Z,101397.09
2022-11-29T09:16:52.618Z,101393.31
2022-11-29T09:19:22.110Z,101401.00
2022-11-29T09:21:51.790Z,101410.84
2022-11-29T09:24:20.349Z,101408.97
2022-11-29T09:26:49.010Z,101411.72
2022-11-29T09:29:18.330Z,101421.63
2022-11-29T09:31:46.276Z,101419.88
2022-11-29T09:34:14.846Z,101431.66
2022-11-29T09:36:45.018Z,101426.13
2022-11-29T09:39:13.976Z,101424.38
2022-11-29T09:41:58.784Z,101434.16
2022-11-29T09:44:38.117Z,101432.53
2022-11-29T09:47:17.433Z,101437.13
2022-11-29T09:50:02.288Z,101446.03
2022-11-29T09:52:44.472Z,101451.50
2022-11-29T09:55:32.471Z,101439.84
2022-11-29T09:58:03.905Z,101445.19
2022-11-29T10:00:46.877Z,101455.09
2022-11-29T10:03:24.495Z,101444.19
2022-11-29T10:05:57.545Z,101452.28
2022-11-29T10:08:29.104Z,101450.31
2022-11-29T10:11:15.636Z,101447.91
2022-11-29T10:13:46.614Z,101452.16
2022-11-29T10:16:22.348Z,101445.75
2022-11-29T10:18:56.972Z,101444.78
2022-11-29T10:21:30.667Z,101441.16
2022-11-29T10:24:05.008Z,101448.28
2022-11-29T10:26:35.477Z,101458.19
2022-11-29T10:29:03.815Z,101456.31
2022-11-29T10:31:36.174Z,101450.78
2022-11-29T10:34:13.486Z,101442.59
2022-11-29T10:36:44.402Z,101441.72
2022-11-29T10:39:17.342Z,101443.41
2022-11-29T10:41:45.056Z,101439.69
2022-11-29T10:44:15.633Z,101449.13
2022-11-29T10:46:43.776Z,101450.72
2022-11-29T10:49:17.114Z,101442.44
2022-11-29T10:51:45.400Z,101443.41
2022-11-29T10:54:28.880Z,101445.94
2022-11-29T10:56:58.645Z,101448.75
2022-11-29T10:59:28.857Z,101445.94
2022-11-29T11:01:58.443Z,101448.66
2022-11-29T11:04:30.698Z,101452.13
2022-11-29T11:07:01.421Z,101449.50
2022-11-29T11:09:35.795Z,101449.41
2022-11-29T11:12:07.066Z,101449.31
2022-11-29T11:14:39.323Z,101445.59
2022-11-29T11:17:18.935Z,101448.34
2022-11-29T11:19:59.183Z,101451.84
2022-11-29T11:22:32.643Z,101457.38
2022-11-29T11:25:06.042Z,101458.16
2022-11-29T11:27:40.025Z,101444.53
2022-11-29T11:30:08.948Z,101446.16
2022-11-29T11:32:38.021Z,101453.00
2022-11-29T11:35:23.500Z,101451.84
2022-11-29T11:37:57.777Z,101450.88
2022-11-29T11:40:29.725Z,101456.31
2022-11-29T11:43:00.280Z,101452.81
2022-11-29T11:45:34.074Z,101462.66
2022-11-29T11:48:06.046Z,101461.78
2022-11-29T11:50:37.425Z,101463.72
2022-11-29T11:53:08.566Z,101460.13
2022-11-29T11:55:41.633Z,101461.63
2022-11-29T11:58:18.398Z,101460.75
2022-11-29T12:01:05.708Z,101458.16
2022-11-29T12:03:45.732Z,101457.94
2022-11-29T12:06:28.381Z,101460.66
2022-11-29T12:09:05.308Z,101463.50
2022-11-29T12:11:42.417Z,101460.66
2022-11-29T12:14:25.252Z,101464.06
2022-11-29T12:16:59.698Z,101467.00
2022-11-29T12:19:36.653Z,101467.88
2022-11-29T12:22:15.856Z,101481.22
2022-11-29T12:24:51.782Z,101468.66
2022-11-29T12:27:21.303Z,101478.34
2022-11-29T12:29:49.420Z,101483.94
2022-11-29T12:32:43.073Z,101484.59
2022-11-29T12:35:34.830Z,101492.75
2022-11-29T12:38:13.993Z,101496.28
2022-11-29T12:40:48.324Z,101497.25
2022-11-29T12:43:29.806Z,101500.66
2022-11-29T12:46:04.900Z,101501.72
2022-11-29T12:48:42.524Z,101492.56
2022-11-29T12:51:22.131Z,101497.91
2022-11-29T12:54:16.263Z,101509.56
2022-11-29T12:56:51.882Z,101509.72
2022-11-29T12:59:33.168Z,101511.34
2022-11-29T13:02:21.854Z,101504.25
2022-11-29T13:04:59.896Z,101511.34
2022-11-29T13:07:38.611Z,101509.56
2022-11-29T13:10:20.677Z,101513.09
2022-11-29T13:12:52.921Z,101519.50
2022-11-29T13:15:24.739Z,101517.75
2022-11-29T13:18:00.345Z,101524.78
2022-11-29T13:20:39.467Z,101519.31
2022-11-29T13:23:39.060Z,101522.03
2022-11-29T13:26:13.359Z,101522.91
2022-11-29T13:28:43.821Z,101526.63
2022-11-29T13:31:18.369Z,101523.69
2022-11-29T13:33:57.861Z,101530.03
2022-11-29T13:36:35.208Z,101520.97
2022-11-29T13:39:16.889Z,101522.81
2022-11-29T13:41:53.115Z,101530.88
2022-11-29T13:44:31.144Z,101524.69
2022-11-29T13:47:06.657Z,101526.28
2022-11-29T13:49:54.062Z,101530.03
2022-11-29T13:52:36.061Z,101522.69
2022-11-29T13:55:37.580Z,101529.16
2022-11-29T13:58:18.134Z,101529.25
2022-11-29T14:00:52.494Z,101537.22
2022-11-29T14:03:30.095Z,101532.84
2022-11-29T14:06:18.922Z,101529.25
2022-11-29T14:09:22.496Z,101541.13
2022-11-29T14:11:56.374Z,101536.75
2022-11-29T14:14:29.602Z,101541.91
2022-11-29T14:17:01.219Z,101530.31
2022-11-29T14:19:34.227Z,101541.03
2022-11-29T14:22:22.390Z,101546.50
2022-11-29T14:25:01.376Z,101543.78
2022-11-29T14:27:58.761Z,101548.44
2022-11-29T14:30:53.003Z,101552.25
2022-11-29T14:33:37.280Z,101552.16
2022-11-29T14:36:40.572Z,101544.28
2022-11-29T14:39:31.342Z,101556.19
2022-11-29T14:42:16.935Z,101563.25
2022-11-29T14:44:47.961Z,101562.50
2022-11-29T14:47:24.128Z,101567.00
2022-11-29T14:49:54.118Z,101567.19
2022-11-29T14:52:29.369Z,101559.78
2022-11-29T14:55:01.856Z,101569.91
2022-11-29T14:57:53.059Z,101574.59
2022-11-29T15:00:23.063Z,101575.38
2022-11-29T15:02:53.628Z,101574.41
2022-11-29T15:05:25.684Z,101570.78
2022-11-29T15:08:08.220Z,101573.63
2022-11-29T15:10:41.504Z,101577.31
2022-11-29T15:13:17.388Z,101572.63
2022-11-29T15:16:12.367Z,101582.66
2022-11-29T15:19:00.270Z,101579.94
2022-11-29T15:21:41.131Z,101580.13
2022-11-29T15:24:15.505Z,101580.03
2022-11-29T15:26:56.594Z,101586.47
2022-11-29T15:29:24.881Z,101582.00
2022-11-29T15:31:55.832Z,101581.00
2022-11-29T15:34:32.258Z,101594.56
2022-11-29T15:37:00.883Z,101594.66
2022-11-29T15:39:32.907Z,101592.06
2022-11-29T15:42:02.466Z,101593.91
2022-11-29T15:44:32.632Z,101598.34
2022-11-29T15:47:17.957Z,101601.97
2022-11-29T15:49:46.104Z,101600.34
2022-11-29T15:52:20.612Z,101601.00
2022-11-29T15:54:53.958Z,101609.16
2022-11-29T15:57:25.737Z,101615.44
2022-11-29T15:59:59.934Z,101605.97
2022-11-29T16:02:32.537Z,101612.88
2022-11-29T16:05:06.642Z,101617.44
2022-11-29T16:07:34.822Z,101620.16
2022-11-29T16:10:11.837Z,101619.09
2022-11-29T16:12:52.487Z,101620.16
2022-11-29T16:15:31.818Z,101623.78
2022-11-29T16:18:05.399Z,101628.25
2022-11-29T16:20:34.074Z,101622.06
2022-11-29T16:23:13.217Z,101623.69
2022-11-29T16:26:08.044Z,101627.50
2022-11-29T16:28:41.764Z,101624.78
2022-11-29T16:31:14.917Z,101616.88
2022-11-29T16:33:47.411Z,101627.59
2022-11-29T16:36:18.584Z,101623.03
2022-11-29T16:38:48.267Z,101625.84
2022-11-29T16:41:26.222Z,101621.19
2022-11-29T16:43:57.518Z,101619.41
2022-11-29T16:46:35.519Z,101622.06
2022-11-29T16:49:25.777Z,101623.13
2022-11-29T16:51:55.314Z,101631.31
2022-11-29T16:54:24.769Z,101624.97
2022-11-29T16:56:56.866Z,101629.34
2022-11-29T16:59:32.477Z,101627.78
2022-11-29T17:02:00.758Z,101623.41
2022-11-29T17:04:31.417Z,101625.94
2022-11-29T17:07:00.650Z,101627.69
2022-11-29T17:09:34.482Z,101627.69
2022-11-29T17:12:11.087Z,101625.84
2022-11-29T17:14:39.005Z,101623.31
2022-11-29T17:17:07.282Z,101623.41
2022-11-29T17:19:38.822Z,101625.16
2022-11-29T17:22:06.778Z,101625.16
2022-11-29T17:24:35.579Z,101632.47
2022-11-29T17:27:05.157Z,101634.31
2022-11-29T17:29:33.437Z,101630.94
2022-11-29T17:32:01.592Z,101630.06
2022-11-29T17:34:31.473Z,101637.34
2022-11-29T17:37:00.275Z,101641.94
2022-11-29T17:39:28.452Z,101632.00
2022-11-29T17:41:56.644Z,101643.00
2022-11-29T17:44:25.975Z,101644.75
2022-11-29T17:46:53.877Z,101643.09
2022-11-29T17:49:21.864Z,101641.38
2022-11-29T17:51:52.815Z,101641.56
2022-11-29T17:54:21.384Z,101648.78
2022-11-29T17:56:49.289Z,101655.25
2022-11-29T17:59:18.086Z,101652.75
2022-11-29T18:01:48.401Z,101648.13
2022-11-29T18:04:16.584Z,101650.13
2022-11-29T18:06:50.601Z,101649.25
2022-11-29T18:09:20.503Z,101653.72
2022-11-29T18:11:50.561Z,101651.97
2022-11-29T18:14:23.024Z,101661.13
2022-11-29T18:16:53.197Z,101656.81
2022-11-29T18:19:23.018Z,101656.94
2022-11-29T18:21:54.879Z,101652.56
2022-11-29T18:24:23.192Z,101657.22
2022-11-29T18:26:51.732Z,101660.13
2022-11-29T18:29:20.567Z,101660.03
2022-11-29T18:31:48.929Z,101658.28
2022-11-29T18:34:18.256Z,101661.00
2022-11-29T18:36:48.161Z,101664.81
2022-11-29T18:39:17.975Z,101663.06
2022-11-29T18:41:47.908Z,101659.47
2022-11-29T18:44:18.023Z,101661.31
2022-11-29T18:46:47.208Z,101668.03
2022-11-29T18:49:16.928Z,101663.47
2022-11-29T18:51:47.553Z,101669.78
2022-11-29T18:54:16.396Z,101671.72
2022-11-29T18:56:45.578Z,101672.69
2022-11-29T18:59:16.885Z,101671.91
2022-11-29T19:01:47.680Z,101674.72
2022-11-29T19:04:21.078Z,101676.69
2022-11-29T19:06:50.896Z,101684.75
2022-11-29T19:09:22.056Z,101685.84
2022-11-29T19:11:50.953Z,101685.06
2022-11-29T19:14:20.172Z,101681.44
2022-11-29T19:16:52.231Z,101677.38
2022-11-29T19:19:20.387Z,101684.47
2022-11-29T19:21:52.807Z,101684.34
2022-11-29T19:24:21.166Z,101681.16
2022-11-29T19:26:50.382Z,101685.53
2022-11-29T19:29:18.776Z,101681.22
2022-11-29T19:31:46.905Z,101688.66
2022-11-29T19:34:14.956Z,101687.66
2022-11-29T19:36:44.438Z,101687.78
2022-11-29T19:39:17.868Z,101690.50
2022-11-29T19:41:47.735Z,101686.28
2022-11-29T19:44:16.103Z,101691.56
2022-11-29T19:46:45.637Z,101690.59
2022-11-29T19:49:13.822Z,101695.25
2022-11-29T19:51:42.611Z,101697.09
2022-11-29T19:54:11.863Z,101696.22
2022-11-29T19:56:41.687Z,101705.25
2022-11-29T19:59:10.020Z,101701.66
2022-11-29T20:01:42.039Z,101700.69
2022-11-29T20:04:12.305Z,101713.53
2022-11-29T20:06:41.025Z,101713.44
2022-11-29T20:09:09.108Z,101716.16
2022-11-29T20:11:37.091Z,101712.47
2022-11-29T20:14:07.896Z,101716.94
2022-11-29T20:16:41.075Z,101725.13
2022-11-29T20:19:11.959Z,101723.28
2022-11-29T20:21:44.913Z,101723.38
2022-11-29T20:24:14.316Z,101730.31
2022-11-29T20:26:44.528Z,101730.94
2022-11-29T20:29:14.565Z,101728.91
2022-11-29T20:31:49.630Z,101729.69
2022-11-29T20:34:19.098Z,101732.50
2022-11-29T20:37:01.442Z,101737.78
2022-11-29T20:39:39.742Z,101734.44
2022-11-29T20:42:22.953Z,101728.81
2022-11-29T20:44:54.043Z,101726.78
2022-11-29T20:47:26.325Z,101730.06
2022-11-29T20:49:55.338Z,101729.09
2022-11-29T20:52:37.403Z,101737.84
2022-11-29T20:55:06.381Z,101738.81
2022-11-29T20:57:34.207Z,101734.44
2022-11-29T21:00:03.450Z,101736.91
2022-11-29T21:02:31.272Z,101738.81
2022-11-29T21:05:00.014Z,101738.81
2022-11-29T21:07:29.218Z,101738.75
2022-11-29T21:10:01.099Z,101736.09
2022-11-29T21:12:30.645Z,101738.81
2022-11-29T21:14:59.279Z,101742.50
2022-11-29T21:17:33.506Z,101743.22
2022-11-29T21:20:02.672Z,101741.47
2022-11-29T21:22:40.843Z,101741.38
2022-11-29T21:25:17.732Z,101749.47
2022-11-29T21:27:47.219Z,101741.56
2022-11-29T21:30:17.947Z,101744.19
2022-11-29T21:32:49.963Z,101745.06
2022-11-29T21:35:19.040Z,101745.16
2022-11-29T21:37:47.196Z,101731.63
2022-11-29T21:40:16.120Z,101744.19
2022-11-29T21:42:44.091Z,101742.34
2022-11-29T21:45:15.528Z,101739.63
2022-11-29T21:47:44.274Z,101746.03
2022-11-29T21:50:14.219Z,101749.53
2022-11-29T21:52:44.229Z,101749.63
2022-11-29T21:55:13.764Z,101748.66
2022-11-29T21:57:41.773Z,101758.69
2022-11-29T22:00:10.526Z,101757.72
2022-11-29T22:02:38.646Z,101751.41
2022-11-29T22:05:08.461Z,101756.84
2022-11-29T22:07:37.705Z,101750.44
2022-11-29T22:10:12.979Z,101743.22
2022-11-29T22:12:51.431Z,101755.97
2022-11-29T22:15:24.547Z,101754.19
2022-11-29T22:17:53.479Z,101756.94
2022-11-29T22:20:21.592Z,101757.81
2022-11-29T22:22:54.466Z,101766.84
2022-11-29T22:25:25.318Z,101758.78
2022-11-29T22:27:53.187Z,101760.63
2022-11-29T22:30:21.185Z,101756.06
2022-11-29T22:32:49.229Z,101759.66
2022-11-29T22:35:17.112Z,101756.94
2022-11-29T22:37:44.945Z,101747.88
2022-11-29T22:40:15.821Z,101751.41
2022-11-29T22:42:43.636Z,101745.16
2022-11-29T22:45:12.233Z,101742.34
2022-11-29T22:47:40.037Z,101741.47
2022-11-29T22:50:08.600Z,101750.50
2022-11-29T22:52:36.428Z,101746.91
2022-11-29T22:55:05.241Z,101746.03
2022-11-29T22:57:34.578Z,101753.25
2022-11-29T23:00:02.335Z,101748.75
2022-11-29T23:02:30.287Z,101740.59
2022-11-29T23:04:58.122Z,101744.19
2022-11-29T23:07:25.937Z,101745.16
2022-11-29T23:09:55.703Z,101750.59
2022-11-29T23:12:23.623Z,101755.09
2022-11-29T23:14:56.309Z,101757.81
2022-11-29T23:17:24.570Z,101762.38
2022-11-29T23:19:52.292Z,101765.97
2022-11-29T23:22:20.081Z,101770.56
2022-11-29T23:24:48.088Z,101771.44
2022-11-29T23:27:16.211Z,101771.44
2022-11-29T23:29:43.934Z,101776.88
2022-11-29T23:32:13.500Z,101773.19
2022-11-29T23:34:42.203Z,101774.16
2022-11-29T23:37:10.001Z,101776.88
2022-11-29T23:39:37.762Z,101778.63
2022-11-29T23:42:05.830Z,101783.19
2022-11-29T23:44:33.651Z,101780.47
2022-11-29T23:47:01.505Z,101785.06
2022-11-29T23:49:30.852Z,101774.06
2022-11-29T23:51:58.648Z,101776.00
2022-11-29T23:54:26.462Z,101782.31
2022-11-29T23:56:54.356Z,101777.75
2022-11-29T23:59:22.096Z,101776.88
